sensor_id;sensor_type;location;lat;lon;timestamp;P1;durP1;ratioP1;P2;durP2;ratioP2
23328;SDS011;11836;51.050;3.716;2023-02-11T00:01:47;5.05;;;1.40;;
23328;SDS011;11836;51.050;3.716;2023-02-11T00:04:12;3.47;;;1.52;;
23328;SDS011;11836;51.050;3.716;2023-02-11T00:06:38;3.42;;;1.30;;
23328;SDS011;11836;51.050;3.716;2023-02-11T00:09:04;4.47;;;1.50;;
23328;SDS011;11836;51.050;3.716;2023-02-11T00:11:30;2.13;;;1.50;;
23328;SDS011;11836;51.050;3.716;2023-02-11T00:14:00;5.45;;;1.40;;
23328;SDS011;11836;51.050;3.716;2023-02-11T00:16:28;2.88;;;1.33;;
23328;SDS011;11836;51.050;3.716;2023-02-11T00:18:55;2.85;;;1.58;;
23328;SDS011;11836;51.050;3.716;2023-02-11T00:21:24;2.75;;;1.30;;
23328;SDS011;11836;51.050;3.716;2023-02-11T00:23:51;3.70;;;1.50;;
23328;SDS011;11836;51.050;3.716;2023-02-11T00:26:18;2.65;;;1.17;;
23328;SDS011;11836;51.050;3.716;2023-02-11T00:28:46;3.85;;;1.58;;
23328;SDS011;11836;51.050;3.716;2023-02-11T00:31:13;2.42;;;1.15;;
23328;SDS011;11836;51.050;3.716;2023-02-11T00:33:49;2.45;;;1.25;;
23328;SDS011;11836;51.050;3.716;2023-02-11T00:36:16;2.97;;;1.30;;
23328;SDS011;11836;51.050;3.716;2023-02-11T00:38:45;3.28;;;1.23;;
23328;SDS011;11836;51.050;3.716;2023-02-11T00:41:12;3.03;;;1.33;;
23328;SDS011;11836;51.050;3.716;2023-02-11T00:43:39;4.07;;;1.60;;
23328;SDS011;11836;51.050;3.716;2023-02-11T00:46:05;2.80;;;1.13;;
23328;SDS011;11836;51.050;3.716;2023-02-11T00:48:31;3.45;;;1.65;;
23328;SDS011;11836;51.050;3.716;2023-02-11T00:50:57;2.90;;;1.40;;
23328;SDS011;11836;51.050;3.716;2023-02-11T00:53:25;3.65;;;1.10;;
23328;SDS011;11836;51.050;3.716;2023-02-11T00:55:51;2.92;;;1.45;;
23328;SDS011;11836;51.050;3.716;2023-02-11T00:58:17;2.58;;;1.42;;
23328;SDS011;11836;51.050;3.716;2023-02-11T01:00:43;2.40;;;1.27;;
23328;SDS011;11836;51.050;3.716;2023-02-11T01:03:08;2.90;;;1.20;;
23328;SDS011;11836;51.050;3.716;2023-02-11T01:05:34;2.17;;;1.08;;
23328;SDS011;11836;51.050;3.716;2023-02-11T01:08:01;2.25;;;1.15;;
23328;SDS011;11836;51.050;3.716;2023-02-11T01:10:27;2.95;;;1.27;;
23328;SDS011;11836;51.050;3.716;2023-02-11T01:12:52;2.97;;;1.50;;
23328;SDS011;11836;51.050;3.716;2023-02-11T01:15:18;2.75;;;1.23;;
23328;SDS011;11836;51.050;3.716;2023-02-11T01:17:44;1.88;;;1.25;;
23328;SDS011;11836;51.050;3.716;2023-02-11T01:20:12;2.40;;;1.33;;
23328;SDS011;11836;51.050;3.716;2023-02-11T01:25:07;4.07;;;1.33;;
23328;SDS011;11836;51.050;3.716;2023-02-11T01:27:34;2.88;;;1.23;;
23328;SDS011;11836;51.050;3.716;2023-02-11T01:30:01;2.53;;;1.30;;
23328;SDS011;11836;51.050;3.716;2023-02-11T01:32:28;4.13;;;1.60;;
23328;SDS011;11836;51.050;3.716;2023-02-11T01:34:53;2.40;;;1.42;;
23328;SDS011;11836;51.050;3.716;2023-02-11T01:37:19;3.10;;;1.33;;
23328;SDS011;11836;51.050;3.716;2023-02-11T01:39:45;2.92;;;1.13;;
23328;SDS011;11836;51.050;3.716;2023-02-11T01:42:14;2.60;;;1.50;;
23328;SDS011;11836;51.050;3.716;2023-02-11T01:44:41;2.33;;;1.10;;
23328;SDS011;11836;51.050;3.716;2023-02-11T01:47:07;3.40;;;1.27;;
23328;SDS011;11836;51.050;3.716;2023-02-11T01:49:34;1.60;;;1.35;;
23328;SDS011;11836;51.050;3.716;2023-02-11T01:52:20;2.58;;;1.10;;
23328;SDS011;11836;51.050;3.716;2023-02-11T01:55:02;2.42;;;1.33;;
23328;SDS011;11836;51.050;3.716;2023-02-11T01:57:51;2.33;;;0.98;;
23328;SDS011;11836;51.050;3.716;2023-02-11T02:00:30;3.60;;;1.48;;
23328;SDS011;11836;51.050;3.716;2023-02-11T02:08:31;3.70;;;1.60;;
23328;SDS011;11836;51.050;3.716;2023-02-11T02:11:03;5.70;;;1.40;;
23328;SDS011;11836;51.050;3.716;2023-02-11T02:13:29;2.78;;;1.20;;
23328;SDS011;11836;51.050;3.716;2023-02-11T02:16:03;3.67;;;1.53;;
23328;SDS011;11836;51.050;3.716;2023-02-11T02:32:51;2.78;;;1.20;;
23328;SDS011;11836;51.050;3.716;2023-02-11T02:38:15;1.92;;;1.38;;
23328;SDS011;11836;51.050;3.716;2023-02-11T02:40:56;3.03;;;1.45;;
23328;SDS011;11836;51.050;3.716;2023-02-11T02:43:27;3.70;;;1.38;;
23328;SDS011;11836;51.050;3.716;2023-02-11T02:45:54;8.45;;;1.80;;
23328;SDS011;11836;51.050;3.716;2023-02-11T02:48:27;6.13;;;1.13;;
23328;SDS011;11836;51.050;3.716;2023-02-11T02:53:54;3.78;;;1.52;;
23328;SDS011;11836;51.050;3.716;2023-02-11T03:10:16;4.78;;;1.23;;
23328;SDS011;11836;51.050;3.716;2023-02-11T03:12:49;3.22;;;1.25;;
23328;SDS011;11836;51.050;3.716;2023-02-11T03:15:17;3.55;;;1.50;;
23328;SDS011;11836;51.050;3.716;2023-02-11T03:17:46;3.50;;;1.42;;
23328;SDS011;11836;51.050;3.716;2023-02-11T03:20:15;3.88;;;1.30;;
23328;SDS011;11836;51.050;3.716;2023-02-11T03:22:45;3.38;;;1.42;;
23328;SDS011;11836;51.050;3.716;2023-02-11T03:25:12;4.40;;;1.30;;
23328;SDS011;11836;51.050;3.716;2023-02-11T03:27:42;4.80;;;1.27;;
23328;SDS011;11836;51.050;3.716;2023-02-11T03:30:29;4.70;;;1.33;;
23328;SDS011;11836;51.050;3.716;2023-02-11T03:35:32;3.85;;;1.23;;
23328;SDS011;11836;51.050;3.716;2023-02-11T03:38:06;2.47;;;1.35;;
23328;SDS011;11836;51.050;3.716;2023-02-11T03:40:51;3.38;;;1.58;;
23328;SDS011;11836;51.050;3.716;2023-02-11T03:43:32;2.47;;;1.20;;
23328;SDS011;11836;51.050;3.716;2023-02-11T03:46:00;7.55;;;1.52;;
23328;SDS011;11836;51.050;3.716;2023-02-11T03:48:30;4.13;;;1.15;;
23328;SDS011;11836;51.050;3.716;2023-02-11T03:50:59;5.05;;;1.55;;
23328;SDS011;11836;51.050;3.716;2023-02-11T03:53:28;4.97;;;1.75;;
23328;SDS011;11836;51.050;3.716;2023-02-11T03:55:55;10.88;;;1.58;;
23328;SDS011;11836;51.050;3.716;2023-02-11T03:58:24;4.03;;;1.40;;
23328;SDS011;11836;51.050;3.716;2023-02-11T04:00:49;4.93;;;1.45;;
23328;SDS011;11836;51.050;3.716;2023-02-11T04:03:15;3.10;;;1.40;;
23328;SDS011;11836;51.050;3.716;2023-02-11T04:05:44;3.38;;;1.17;;
23328;SDS011;11836;51.050;3.716;2023-02-11T04:08:10;5.78;;;1.38;;
23328;SDS011;11836;51.050;3.716;2023-02-11T04:10:36;4.60;;;1.60;;
23328;SDS011;11836;51.050;3.716;2023-02-11T04:13:02;6.28;;;1.80;;
23328;SDS011;11836;51.050;3.716;2023-02-11T04:15:28;7.28;;;1.58;;
23328;SDS011;11836;51.050;3.716;2023-02-11T04:17:54;4.47;;;1.95;;
23328;SDS011;11836;51.050;3.716;2023-02-11T04:20:22;6.53;;;1.95;;
23328;SDS011;11836;51.050;3.716;2023-02-11T04:22:49;5.10;;;1.15;;
23328;SDS011;11836;51.050;3.716;2023-02-11T04:25:14;2.83;;;1.17;;
23328;SDS011;11836;51.050;3.716;2023-02-11T04:27:42;3.75;;;1.23;;
23328;SDS011;11836;51.050;3.716;2023-02-11T04:30:09;3.00;;;1.33;;
23328;SDS011;11836;51.050;3.716;2023-02-11T04:32:36;3.33;;;1.20;;
23328;SDS011;11836;51.050;3.716;2023-02-11T04:35:02;3.22;;;1.48;;
23328;SDS011;11836;51.050;3.716;2023-02-11T04:37:28;2.20;;;1.00;;
23328;SDS011;11836;51.050;3.716;2023-02-11T04:39:54;5.25;;;1.50;;
23328;SDS011;11836;51.050;3.716;2023-02-11T04:42:19;3.17;;;1.00;;
23328;SDS011;11836;51.050;3.716;2023-02-11T04:44:46;4.97;;;1.20;;
23328;SDS011;11836;51.050;3.716;2023-02-11T04:47:18;3.22;;;1.52;;
23328;SDS011;11836;51.050;3.716;2023-02-11T04:49:44;4.18;;;1.80;;
23328;SDS011;11836;51.050;3.716;2023-02-11T04:52:09;5.75;;;1.33;;
23328;SDS011;11836;51.050;3.716;2023-02-11T04:54:35;3.83;;;1.13;;
23328;SDS011;11836;51.050;3.716;2023-02-11T04:57:01;2.05;;;1.23;;
23328;SDS011;11836;51.050;3.716;2023-02-11T04:59:26;2.97;;;1.30;;
23328;SDS011;11836;51.050;3.716;2023-02-11T05:01:54;4.38;;;1.20;;
23328;SDS011;11836;51.050;3.716;2023-02-11T05:04:19;3.85;;;1.13;;
23328;SDS011;11836;51.050;3.716;2023-02-11T05:06:45;4.55;;;1.20;;
23328;SDS011;11836;51.050;3.716;2023-02-11T05:09:11;4.45;;;1.33;;
23328;SDS011;11836;51.050;3.716;2023-02-11T05:11:37;2.08;;;1.40;;
23328;SDS011;11836;51.050;3.716;2023-02-11T05:14:04;1.55;;;1.13;;
23328;SDS011;11836;51.050;3.716;2023-02-11T05:16:32;3.30;;;1.10;;
23328;SDS011;11836;51.050;3.716;2023-02-11T05:18:59;1.05;;;0.82;;
23328;SDS011;11836;51.050;3.716;2023-02-11T05:21:24;2.85;;;1.48;;
23328;SDS011;11836;51.050;3.716;2023-02-11T05:23:50;3.75;;;1.48;;
23328;SDS011;11836;51.050;3.716;2023-02-11T05:26:16;1.17;;;1.02;;
23328;SDS011;11836;51.050;3.716;2023-02-11T05:28:48;3.00;;;1.30;;
23328;SDS011;11836;51.050;3.716;2023-02-11T05:31:14;2.17;;;1.02;;
23328;SDS011;11836;51.050;3.716;2023-02-11T05:33:40;2.85;;;1.08;;
23328;SDS011;11836;51.050;3.716;2023-02-11T05:36:09;2.40;;;1.25;;
23328;SDS011;11836;51.050;3.716;2023-02-11T05:38:36;2.45;;;1.23;;
23328;SDS011;11836;51.050;3.716;2023-02-11T05:41:03;1.77;;;1.00;;
23328;SDS011;11836;51.050;3.716;2023-02-11T05:43:32;3.28;;;1.30;;
23328;SDS011;11836;51.050;3.716;2023-02-11T05:46:02;3.80;;;1.45;;
23328;SDS011;11836;51.050;3.716;2023-02-11T05:48:28;2.25;;;1.17;;
23328;SDS011;11836;51.050;3.716;2023-02-11T05:50:55;2.88;;;1.23;;
23328;SDS011;11836;51.050;3.716;2023-02-11T05:53:21;2.53;;;1.15;;
23328;SDS011;11836;51.050;3.716;2023-02-11T05:55:49;1.95;;;1.10;;
23328;SDS011;11836;51.050;3.716;2023-02-11T05:58:17;3.30;;;1.30;;
23328;SDS011;11836;51.050;3.716;2023-02-11T06:00:42;1.70;;;0.98;;
23328;SDS011;11836;51.050;3.716;2023-02-11T06:03:08;1.65;;;1.13;;
23328;SDS011;11836;51.050;3.716;2023-02-11T06:05:34;1.95;;;0.93;;
23328;SDS011;11836;51.050;3.716;2023-02-11T06:08:01;3.17;;;1.10;;
23328;SDS011;11836;51.050;3.716;2023-02-11T06:10:26;2.72;;;1.17;;
23328;SDS011;11836;51.050;3.716;2023-02-11T06:12:52;3.35;;;1.33;;
23328;SDS011;11836;51.050;3.716;2023-02-11T06:15:18;1.20;;;0.90;;
23328;SDS011;11836;51.050;3.716;2023-02-11T06:17:45;1.90;;;1.02;;
23328;SDS011;11836;51.050;3.716;2023-02-11T06:20:11;1.50;;;0.95;;
23328;SDS011;11836;51.050;3.716;2023-02-11T06:22:37;2.13;;;1.27;;
23328;SDS011;11836;51.050;3.716;2023-02-11T06:25:03;1.65;;;0.98;;
23328;SDS011;11836;51.050;3.716;2023-02-11T06:27:30;2.67;;;1.38;;
23328;SDS011;11836;51.050;3.716;2023-02-11T06:29:55;2.25;;;1.17;;
23328;SDS011;11836;51.050;3.716;2023-02-11T06:32:23;3.08;;;1.02;;
23328;SDS011;11836;51.050;3.716;2023-02-11T06:34:51;2.83;;;1.20;;
23328;SDS011;11836;51.050;3.716;2023-02-11T06:37:16;1.88;;;1.45;;
23328;SDS011;11836;51.050;3.716;2023-02-11T06:39:43;2.22;;;1.25;;
23328;SDS011;11836;51.050;3.716;2023-02-11T06:42:09;2.58;;;1.20;;
23328;SDS011;11836;51.050;3.716;2023-02-11T06:44:35;4.00;;;1.40;;
23328;SDS011;11836;51.050;3.716;2023-02-11T06:47:04;1.48;;;1.08;;
23328;SDS011;11836;51.050;3.716;2023-02-11T06:49:30;2.28;;;1.42;;
23328;SDS011;11836;51.050;3.716;2023-02-11T06:51:56;5.75;;;2.38;;
23328;SDS011;11836;51.050;3.716;2023-02-11T06:54:22;5.93;;;2.83;;
23328;SDS011;11836;51.050;3.716;2023-02-11T06:56:47;4.13;;;2.67;;
23328;SDS011;11836;51.050;3.716;2023-02-11T06:59:17;4.32;;;2.78;;
23328;SDS011;11836;51.050;3.716;2023-02-11T07:01:47;3.45;;;1.88;;
23328;SDS011;11836;51.050;3.716;2023-02-11T07:04:19;5.82;;;2.20;;
23328;SDS011;11836;51.050;3.716;2023-02-11T07:06:47;6.80;;;1.90;;
23328;SDS011;11836;51.050;3.716;2023-02-11T07:09:12;4.95;;;1.52;;
23328;SDS011;11836;51.050;3.716;2023-02-11T07:11:38;3.78;;;1.70;;
23328;SDS011;11836;51.050;3.716;2023-02-11T07:14:13;5.78;;;2.17;;
23328;SDS011;11836;51.050;3.716;2023-02-11T07:16:39;2.92;;;1.65;;
23328;SDS011;11836;51.050;3.716;2023-02-11T07:19:04;2.05;;;1.27;;
23328;SDS011;11836;51.050;3.716;2023-02-11T07:21:30;2.15;;;1.45;;
23328;SDS011;11836;51.050;3.716;2023-02-11T07:23:56;2.50;;;1.42;;
23328;SDS011;11836;51.050;3.716;2023-02-11T07:26:22;2.85;;;1.50;;
23328;SDS011;11836;51.050;3.716;2023-02-11T07:28:50;2.30;;;1.20;;
23328;SDS011;11836;51.050;3.716;2023-02-11T07:31:17;6.38;;;1.50;;
23328;SDS011;11836;51.050;3.716;2023-02-11T07:33:45;4.17;;;1.63;;
23328;SDS011;11836;51.050;3.716;2023-02-11T07:36:12;1.92;;;1.25;;
23328;SDS011;11836;51.050;3.716;2023-02-11T07:38:39;3.55;;;1.52;;
23328;SDS011;11836;51.050;3.716;2023-02-11T07:41:06;3.00;;;1.60;;
23328;SDS011;11836;51.050;3.716;2023-02-11T07:43:33;3.45;;;1.65;;
23328;SDS011;11836;51.050;3.716;2023-02-11T07:46:05;4.03;;;1.58;;
23328;SDS011;11836;51.050;3.716;2023-02-11T07:48:34;1.83;;;1.38;;
23328;SDS011;11836;51.050;3.716;2023-02-11T07:51:09;4.00;;;1.73;;
23328;SDS011;11836;51.050;3.716;2023-02-11T07:53:43;2.40;;;1.50;;
23328;SDS011;11836;51.050;3.716;2023-02-11T07:56:10;5.05;;;1.40;;
23328;SDS011;11836;51.050;3.716;2023-02-11T07:58:38;3.30;;;1.60;;
23328;SDS011;11836;51.050;3.716;2023-02-11T08:01:07;4.32;;;1.83;;
23328;SDS011;11836;51.050;3.716;2023-02-11T08:03:35;3.67;;;1.67;;
23328;SDS011;11836;51.050;3.716;2023-02-11T08:06:05;2.53;;;1.55;;
23328;SDS011;11836;51.050;3.716;2023-02-11T08:08:32;4.35;;;1.48;;
23328;SDS011;11836;51.050;3.716;2023-02-11T08:10:57;3.03;;;1.67;;
23328;SDS011;11836;51.050;3.716;2023-02-11T08:13:23;1.92;;;1.30;;
23328;SDS011;11836;51.050;3.716;2023-02-11T08:15:51;2.42;;;1.27;;
23328;SDS011;11836;51.050;3.716;2023-02-11T08:18:17;2.58;;;1.60;;
23328;SDS011;11836;51.050;3.716;2023-02-11T08:20:42;3.15;;;1.48;;
23328;SDS011;11836;51.050;3.716;2023-02-11T08:23:09;1.98;;;1.20;;
23328;SDS011;11836;51.050;3.716;2023-02-11T08:25:35;2.67;;;1.67;;
23328;SDS011;11836;51.050;3.716;2023-02-11T08:28:01;3.05;;;1.50;;
23328;SDS011;11836;51.050;3.716;2023-02-11T08:30:27;5.07;;;1.58;;
23328;SDS011;11836;51.050;3.716;2023-02-11T08:32:53;2.17;;;1.13;;
23328;SDS011;11836;51.050;3.716;2023-02-11T08:35:18;3.00;;;1.30;;
23328;SDS011;11836;51.050;3.716;2023-02-11T08:37:44;1.90;;;1.27;;
23328;SDS011;11836;51.050;3.716;2023-02-11T08:40:10;2.10;;;1.20;;
23328;SDS011;11836;51.050;3.716;2023-02-11T08:42:35;2.83;;;1.38;;
23328;SDS011;11836;51.050;3.716;2023-02-11T08:45:01;5.22;;;1.55;;
23328;SDS011;11836;51.050;3.716;2023-02-11T08:47:29;2.85;;;1.30;;
23328;SDS011;11836;51.050;3.716;2023-02-11T08:49:55;2.70;;;1.40;;
23328;SDS011;11836;51.050;3.716;2023-02-11T08:52:21;2.72;;;1.38;;
23328;SDS011;11836;51.050;3.716;2023-02-11T08:54:46;2.40;;;1.40;;
23328;SDS011;11836;51.050;3.716;2023-02-11T08:57:12;1.95;;;1.50;;
23328;SDS011;11836;51.050;3.716;2023-02-11T08:59:38;2.58;;;1.77;;
23328;SDS011;11836;51.050;3.716;2023-02-11T09:02:11;2.67;;;1.73;;
23328;SDS011;11836;51.050;3.716;2023-02-11T09:04:38;3.90;;;1.75;;
23328;SDS011;11836;51.050;3.716;2023-02-11T09:07:04;2.95;;;1.88;;
23328;SDS011;11836;51.050;3.716;2023-02-11T09:09:30;5.53;;;1.98;;
23328;SDS011;11836;51.050;3.716;2023-02-11T09:11:56;2.30;;;1.70;;
23328;SDS011;11836;51.050;3.716;2023-02-11T09:14:25;2.60;;;1.73;;
23328;SDS011;11836;51.050;3.716;2023-02-11T09:16:51;2.15;;;1.73;;
23328;SDS011;11836;51.050;3.716;2023-02-11T09:19:17;2.47;;;1.75;;
23328;SDS011;11836;51.050;3.716;2023-02-11T09:21:44;3.45;;;1.65;;
23328;SDS011;11836;51.050;3.716;2023-02-11T09:24:10;1.88;;;1.55;;
23328;SDS011;11836;51.050;3.716;2023-02-11T09:26:36;2.97;;;1.90;;
23328;SDS011;11836;51.050;3.716;2023-02-11T09:29:03;3.60;;;1.70;;
23328;SDS011;11836;51.050;3.716;2023-02-11T09:31:30;1.58;;;1.45;;
23328;SDS011;11836;51.050;3.716;2023-02-11T09:34:01;2.47;;;1.67;;
23328;SDS011;11836;51.050;3.716;2023-02-11T09:36:39;2.92;;;1.60;;
23328;SDS011;11836;51.050;3.716;2023-02-11T09:39:18;2.85;;;1.60;;
23328;SDS011;11836;51.050;3.716;2023-02-11T09:44:35;4.38;;;2.05;;
23328;SDS011;11836;51.050;3.716;2023-02-11T09:47:03;2.92;;;1.85;;
23328;SDS011;11836;51.050;3.716;2023-02-11T09:54:48;2.65;;;1.63;;
23328;SDS011;11836;51.050;3.716;2023-02-11T09:57:23;3.95;;;1.67;;
23328;SDS011;11836;51.050;3.716;2023-02-11T10:00:15;2.72;;;1.70;;
23328;SDS011;11836;51.050;3.716;2023-02-11T10:02:53;2.92;;;1.85;;
23328;SDS011;11836;51.050;3.716;2023-02-11T10:08:48;2.30;;;1.50;;
23328;SDS011;11836;51.050;3.716;2023-02-11T10:20:45;3.83;;;2.13;;
23328;SDS011;11836;51.050;3.716;2023-02-11T10:23:21;3.30;;;2.08;;
23328;SDS011;11836;51.050;3.716;2023-02-11T10:25:55;6.00;;;2.05;;
23328;SDS011;11836;51.050;3.716;2023-02-11T10:28:33;2.75;;;1.92;;
23328;SDS011;11836;51.050;3.716;2023-02-11T10:31:05;3.85;;;2.10;;
23328;SDS011;11836;51.050;3.716;2023-02-11T10:33:58;3.17;;;1.90;;
23328;SDS011;11836;51.050;3.716;2023-02-11T10:36:35;4.70;;;1.75;;
23328;SDS011;11836;51.050;3.716;2023-02-11T10:39:19;3.58;;;2.40;;
23328;SDS011;11836;51.050;3.716;2023-02-11T10:41:48;2.58;;;1.98;;
23328;SDS011;11836;51.050;3.716;2023-02-11T10:44:42;3.15;;;1.83;;
23328;SDS011;11836;51.050;3.716;2023-02-11T10:47:29;2.50;;;1.98;;
23328;SDS011;11836;51.050;3.716;2023-02-11T10:50:04;3.13;;;2.17;;
23328;SDS011;11836;51.050;3.716;2023-02-11T10:52:46;3.28;;;2.10;;
23328;SDS011;11836;51.050;3.716;2023-02-11T10:57:41;4.25;;;2.25;;
23328;SDS011;11836;51.050;3.716;2023-02-11T11:00:19;2.83;;;1.77;;
23328;SDS011;11836;51.050;3.716;2023-02-11T11:03:15;3.42;;;2.22;;
23328;SDS011;11836;51.050;3.716;2023-02-11T11:05:47;4.28;;;2.03;;
23328;SDS011;11836;51.050;3.716;2023-02-11T11:08:35;3.10;;;1.88;;
23328;SDS011;11836;51.050;3.716;2023-02-11T11:11:16;3.35;;;2.17;;
23328;SDS011;11836;51.050;3.716;2023-02-11T11:16:31;2.33;;;1.88;;
23328;SDS011;11836;51.050;3.716;2023-02-11T11:27:06;2.85;;;2.13;;
23328;SDS011;11836;51.050;3.716;2023-02-11T11:29:48;2.53;;;2.22;;
23328;SDS011;11836;51.050;3.716;2023-02-11T11:32:18;2.85;;;1.98;;
23328;SDS011;11836;51.050;3.716;2023-02-11T11:34:54;3.20;;;2.17;;
23328;SDS011;11836;51.050;3.716;2023-02-11T11:37:32;3.40;;;2.38;;
23328;SDS011;11836;51.050;3.716;2023-02-11T11:40:08;3.38;;;2.28;;
23328;SDS011;11836;51.050;3.716;2023-02-11T11:42:37;4.20;;;2.47;;
23328;SDS011;11836;51.050;3.716;2023-02-11T11:45:51;3.08;;;2.00;;
23328;SDS011;11836;51.050;3.716;2023-02-11T11:48:07;2.95;;;2.35;;
23328;SDS011;11836;51.050;3.716;2023-02-11T11:50:49;3.60;;;2.30;;
23328;SDS011;11836;51.050;3.716;2023-02-11T11:53:30;3.28;;;2.30;;
23328;SDS011;11836;51.050;3.716;2023-02-11T11:56:12;3.25;;;2.15;;
23328;SDS011;11836;51.050;3.716;2023-02-11T11:58:38;3.05;;;2.45;;
23328;SDS011;11836;51.050;3.716;2023-02-11T12:23:48;4.15;;;2.30;;
23328;SDS011;11836;51.050;3.716;2023-02-11T12:26:41;3.60;;;2.47;;
23328;SDS011;11836;51.050;3.716;2023-02-11T12:32:26;3.53;;;2.65;;
23328;SDS011;11836;51.050;3.716;2023-02-11T12:37:56;2.70;;;2.25;;
23328;SDS011;11836;51.050;3.716;2023-02-11T12:43:38;3.67;;;2.35;;
23328;SDS011;11836;51.050;3.716;2023-02-11T12:54:43;3.83;;;1.95;;
23328;SDS011;11836;51.050;3.716;2023-02-11T12:57:18;3.08;;;2.22;;
23328;SDS011;11836;51.050;3.716;2023-02-11T13:00:02;3.42;;;2.38;;
23328;SDS011;11836;51.050;3.716;2023-02-11T13:05:53;2.70;;;2.10;;
23328;SDS011;11836;51.050;3.716;2023-02-11T13:08:40;3.08;;;2.28;;
23328;SDS011;11836;51.050;3.716;2023-02-11T13:11:19;2.67;;;2.28;;
23328;SDS011;11836;51.050;3.716;2023-02-11T13:16:53;2.30;;;2.10;;
23328;SDS011;11836;51.050;3.716;2023-02-11T13:22:16;3.30;;;2.50;;
23328;SDS011;11836;51.050;3.716;2023-02-11T13:38:45;3.17;;;2.20;;
23328;SDS011;11836;51.050;3.716;2023-02-11T13:41:01;6.60;;;2.35;;
23328;SDS011;11836;51.050;3.716;2023-02-11T13:43:43;5.65;;;2.38;;
23328;SDS011;11836;51.050;3.716;2023-02-11T13:46:20;3.42;;;2.70;;
23328;SDS011;11836;51.050;3.716;2023-02-11T13:48:47;2.80;;;2.30;;
23328;SDS011;11836;51.050;3.716;2023-02-11T13:51:15;4.00;;;2.03;;
23328;SDS011;11836;51.050;3.716;2023-02-11T13:56:23;4.63;;;2.40;;
23328;SDS011;11836;51.050;3.716;2023-02-11T13:58:55;3.03;;;2.35;;
23328;SDS011;11836;51.050;3.716;2023-02-11T14:11:01;3.75;;;2.30;;
23328;SDS011;11836;51.050;3.716;2023-02-11T14:16:13;3.92;;;2.20;;
23328;SDS011;11836;51.050;3.716;2023-02-11T14:26:49;3.20;;;1.80;;
23328;SDS011;11836;51.050;3.716;2023-02-11T14:29:31;4.18;;;2.30;;
23328;SDS011;11836;51.050;3.716;2023-02-11T14:34:47;3.92;;;2.05;;
23328;SDS011;11836;51.050;3.716;2023-02-11T14:40:02;2.40;;;1.77;;
23328;SDS011;11836;51.050;3.716;2023-02-11T14:42:39;7.38;;;2.22;;
23328;SDS011;11836;51.050;3.716;2023-02-11T14:45:06;5.32;;;1.90;;
23328;SDS011;11836;51.050;3.716;2023-02-11T14:47:43;2.70;;;2.10;;
23328;SDS011;11836;51.050;3.716;2023-02-11T14:51:33;4.72;;;1.80;;
23328;SDS011;11836;51.050;3.716;2023-02-11T14:53:32;2.33;;;1.80;;
23328;SDS011;11836;51.050;3.716;2023-02-11T14:55:59;2.35;;;1.80;;
23328;SDS011;11836;51.050;3.716;2023-02-11T14:58:25;2.78;;;1.80;;
23328;SDS011;11836;51.050;3.716;2023-02-11T15:03:32;3.78;;;2.13;;
23328;SDS011;11836;51.050;3.716;2023-02-11T15:06:06;2.85;;;2.00;;
23328;SDS011;11836;51.050;3.716;2023-02-11T15:08:44;1.92;;;1.70;;
23328;SDS011;11836;51.050;3.716;2023-02-11T15:11:20;2.88;;;2.08;;
23328;SDS011;11836;51.050;3.716;2023-02-11T15:13:48;1.58;;;1.48;;
23328;SDS011;11836;51.050;3.716;2023-02-11T15:16:15;2.17;;;1.67;;
23328;SDS011;11836;51.050;3.716;2023-02-11T15:18:46;2.40;;;1.88;;
23328;SDS011;11836;51.050;3.716;2023-02-11T15:21:25;4.28;;;2.20;;
23328;SDS011;11836;51.050;3.716;2023-02-11T15:24:04;3.00;;;2.03;;
23328;SDS011;11836;51.050;3.716;2023-02-11T15:26:55;3.15;;;2.08;;
23328;SDS011;11836;51.050;3.716;2023-02-11T15:29:36;4.80;;;2.35;;
23328;SDS011;11836;51.050;3.716;2023-02-11T15:32:06;3.50;;;2.17;;
23328;SDS011;11836;51.050;3.716;2023-02-11T15:34:42;2.85;;;1.90;;
23328;SDS011;11836;51.050;3.716;2023-02-11T15:37:11;3.83;;;2.15;;
23328;SDS011;11836;51.050;3.716;2023-02-11T15:39:43;2.17;;;1.90;;
23328;SDS011;11836;51.050;3.716;2023-02-11T15:42:30;2.22;;;1.70;;
23328;SDS011;11836;51.050;3.716;2023-02-11T15:47:34;2.88;;;1.55;;
23328;SDS011;11836;51.050;3.716;2023-02-11T15:50:00;2.58;;;1.90;;
23328;SDS011;11836;51.050;3.716;2023-02-11T15:52:26;2.50;;;1.92;;
23328;SDS011;11836;51.050;3.716;2023-02-11T15:54:53;2.95;;;1.60;;
23328;SDS011;11836;51.050;3.716;2023-02-11T15:57:21;2.58;;;1.73;;
23328;SDS011;11836;51.050;3.716;2023-02-11T15:59:49;2.60;;;1.90;;
23328;SDS011;11836;51.050;3.716;2023-02-11T16:02:18;4.32;;;2.00;;
23328;SDS011;11836;51.050;3.716;2023-02-11T16:04:48;1.90;;;1.65;;
23328;SDS011;11836;51.050;3.716;2023-02-11T16:07:38;2.58;;;1.80;;
23328;SDS011;11836;51.050;3.716;2023-02-11T16:13:03;3.20;;;1.80;;
23328;SDS011;11836;51.050;3.716;2023-02-11T16:15:45;3.65;;;2.13;;
23328;SDS011;11836;51.050;3.716;2023-02-11T16:18:21;3.60;;;1.70;;
23328;SDS011;11836;51.050;3.716;2023-02-11T16:21:03;2.25;;;1.98;;
23328;SDS011;11836;51.050;3.716;2023-02-11T16:23:31;2.60;;;1.77;;
23328;SDS011;11836;51.050;3.716;2023-02-11T16:26:03;4.45;;;2.10;;
23328;SDS011;11836;51.050;3.716;2023-02-11T16:28:33;1.60;;;1.50;;
23328;SDS011;11836;51.050;3.716;2023-02-11T16:31:01;2.35;;;1.60;;
23328;SDS011;11836;51.050;3.716;2023-02-11T16:33:30;2.78;;;1.98;;
23328;SDS011;11836;51.050;3.716;2023-02-11T16:36:00;2.28;;;1.77;;
23328;SDS011;11836;51.050;3.716;2023-02-11T16:40:56;2.53;;;1.70;;
23328;SDS011;11836;51.050;3.716;2023-02-11T16:43:21;2.28;;;1.80;;
23328;SDS011;11836;51.050;3.716;2023-02-11T16:45:47;2.88;;;1.88;;
23328;SDS011;11836;51.050;3.716;2023-02-11T16:48:15;2.08;;;1.75;;
23328;SDS011;11836;51.050;3.716;2023-02-11T16:50:44;2.70;;;1.70;;
23328;SDS011;11836;51.050;3.716;2023-02-11T16:53:17;4.25;;;1.65;;
23328;SDS011;11836;51.050;3.716;2023-02-11T16:55:45;3.08;;;2.00;;
23328;SDS011;11836;51.050;3.716;2023-02-11T16:58:11;4.13;;;2.20;;
23328;SDS011;11836;51.050;3.716;2023-02-11T17:00:37;2.80;;;2.00;;
23328;SDS011;11836;51.050;3.716;2023-02-11T17:03:07;4.35;;;2.60;;
23328;SDS011;11836;51.050;3.716;2023-02-11T17:05:37;2.55;;;2.03;;
23328;SDS011;11836;51.050;3.716;2023-02-11T17:08:02;2.38;;;2.08;;
23328;SDS011;11836;51.050;3.716;2023-02-11T17:10:30;2.22;;;1.98;;
23328;SDS011;11836;51.050;3.716;2023-02-11T17:12:57;1.73;;;1.60;;
23328;SDS011;11836;51.050;3.716;2023-02-11T17:15:24;3.08;;;1.63;;
23328;SDS011;11836;51.050;3.716;2023-02-11T17:17:53;1.92;;;1.52;;
23328;SDS011;11836;51.050;3.716;2023-02-11T17:20:18;2.63;;;1.60;;
23328;SDS011;11836;51.050;3.716;2023-02-11T17:22:44;1.95;;;1.75;;
23328;SDS011;11836;51.050;3.716;2023-02-11T17:25:10;2.78;;;1.58;;
23328;SDS011;11836;51.050;3.716;2023-02-11T17:27:35;1.95;;;1.63;;
23328;SDS011;11836;51.050;3.716;2023-02-11T17:30:01;1.50;;;1.30;;
23328;SDS011;11836;51.050;3.716;2023-02-11T17:32:27;3.70;;;2.05;;
23328;SDS011;11836;51.050;3.716;2023-02-11T17:34:53;2.08;;;1.50;;
23328;SDS011;11836;51.050;3.716;2023-02-11T17:37:18;1.75;;;1.65;;
23328;SDS011;11836;51.050;3.716;2023-02-11T17:39:44;1.88;;;1.67;;
23328;SDS011;11836;51.050;3.716;2023-02-11T17:42:11;2.92;;;1.70;;
23328;SDS011;11836;51.050;3.716;2023-02-11T17:44:38;2.50;;;1.80;;
23328;SDS011;11836;51.050;3.716;2023-02-11T17:47:04;1.98;;;1.65;;
23328;SDS011;11836;51.050;3.716;2023-02-11T17:49:30;2.92;;;1.70;;
23328;SDS011;11836;51.050;3.716;2023-02-11T17:51:55;2.33;;;1.98;;
23328;SDS011;11836;51.050;3.716;2023-02-11T17:54:21;3.22;;;2.00;;
23328;SDS011;11836;51.050;3.716;2023-02-11T17:56:47;2.33;;;1.80;;
23328;SDS011;11836;51.050;3.716;2023-02-11T17:59:14;1.90;;;1.65;;
23328;SDS011;11836;51.050;3.716;2023-02-11T18:01:41;4.28;;;1.75;;
23328;SDS011;11836;51.050;3.716;2023-02-11T18:04:07;3.03;;;1.90;;
23328;SDS011;11836;51.050;3.716;2023-02-11T18:09:45;4.95;;;2.40;;